28 de maio de 2022

Hora Código Clima Temp. Visibilidade Tecto Vento METAR/SPECI
6:30 da tarde
V
75 °F 6¼ mi+ - 310° 310° 13 kt METAR LFCR 281630Z AUTO 31013KT CAVOK 24/08 Q1014 NOSIG
6:00 da tarde
V
75 °F 6¼ mi+ - 300° 300° 12 kt METAR LFCR 281600Z AUTO 30012KT 250V330 CAVOK 24/07 Q1014 NOSIG
5:30 da tarde
V
75 °F 6¼ mi+ - 310° 310° 11 kt METAR LFCR 281530Z AUTO 31011KT 260V350 CAVOK 24/08 Q1014 NOSIG
5:00 da tarde
V
75 °F 6¼ mi+ - 310° 310° 10 kt METAR LFCR 281500Z AUTO 31010KT 270V350 CAVOK 24/09 Q1015 NOSIG
4:30 da tarde
V
75 °F 6¼ mi+ - Var Var 7 kt METAR LFCR 281430Z AUTO VRB07KT CAVOK 24/10 Q1015 NOSIG
4:00 da tarde
V
73 °F 6¼ mi+ - 300° 300° 10 kt METAR LFCR 281400Z AUTO 30010KT 240V340 CAVOK 23/11 Q1015 NOSIG
3:30 da tarde
V
73 °F 6¼ mi+ - 300° 300° 10 kt METAR LFCR 281330Z AUTO 30010KT 240V340 CAVOK 23/11 Q1015 NOSIG
3:00 da tarde
V
73 °F 6¼ mi+ - 330° 330° 8 kt METAR LFCR 281300Z AUTO 33008KT 260V020 CAVOK 23/10 Q1016 NOSIG
2:30 da tarde
V
72 °F 6¼ mi+ - 340° 340° 9 kt METAR LFCR 281230Z AUTO 34009KT 300V030 CAVOK 22/07 Q1016 NOSIG
2:00 da tarde
V
72 °F 6¼ mi+ - 350° 350° 11 kt METAR LFCR 281200Z AUTO 35011KT 310V040 CAVOK 22/07 Q1017 NOSIG
1:30 da tarde
V
70 °F 6¼ mi+ - 350° 350° 13 kt METAR LFCR 281130Z AUTO 35013KT CAVOK 21/06 Q1017 NOSIG
1:00 da tarde
V
32 °F 6¼ mi+ - 350° 350° 11 kt METAR LFCR 281100Z AUTO 35011KT CAVOK ///// Q1017 NOSIG
12:30 da tarde
V
68 °F 6¼ mi+ - 340° 340° 10 kt METAR LFCR 281030Z AUTO 34010KT 300V030 CAVOK 20/07 Q1018 NOSIG
12:00 da tarde
V
68 °F 6¼ mi+ - 360° 360° 8 kt METAR LFCR 281000Z AUTO 36008KT 320V060 CAVOK 20/08 Q1018 NOSIG
11:30 da manhã
V
66 °F 6¼ mi+ - 010° 010° 9 kt METAR LFCR 280930Z AUTO 01009KT 290V050 CAVOK 19/08 Q1018 NOSIG
11:00 da manhã
V
32 °F 6¼ mi+ - 350° 350° 9 kt METAR LFCR 280900Z AUTO 35009KT 310V040 CAVOK ///// Q1018 NOSIG
10:30 da manhã
V
32 °F 6¼ mi+ - 020° 020° 8 kt METAR LFCR 280830Z AUTO 02008KT 340V050 CAVOK ///// Q1018 NOSIG
10:00 da manhã
V
32 °F 6¼ mi+ - 010° 010° 7 kt METAR LFCR 280800Z AUTO 01007KT 330V050 CAVOK ///// Q1018 NOSIG
9:30 da manhã
V
61 °F 6¼ mi+ - 020° 020° 8 kt METAR LFCR 280730Z AUTO 02008KT 350V050 CAVOK 16/10 Q1018 NOSIG
9:00 da manhã
V
59 °F 6¼ mi+ - 360° 360° 6 kt METAR LFCR 280700Z AUTO 36006KT 330V040 CAVOK 15/09 Q1019 NOSIG
8:30 da manhã
V
57 °F 6¼ mi+ - 020° 020° 4 kt METAR LFCR 280630Z AUTO 02004KT 340V060 CAVOK 14/10 Q1019 NOSIG
8:00 da manhã
V
55 °F 6¼ mi+ - 050° 050° 4 kt METAR LFCR 280600Z AUTO 05004KT 010V070 CAVOK 13/09 Q1019 NOSIG
7:30 da manhã
V
52 °F 6¼ mi+ - Var Var 2 kt METAR LFCR 280530Z AUTO VRB02KT CAVOK 11/10 Q1019 NOSIG
7:00 da manhã
V
50 °F 6¼ mi+ - 320° 320° 1 kt METAR LFCR 280500Z AUTO 32001KT CAVOK 10/10 Q1019 NOSIG
6:30 da manhã
V
46 °F 6¼ mi+ - 210° 210° 2 kt METAR LFCR 280430Z AUTO 21002KT CAVOK 08/07 Q1019 NOSIG
6:00 da manhã
V
48 °F 6¼ mi+ - 020° 020° 1 kt METAR LFCR 280400Z AUTO 02001KT CAVOK 09/08 Q1019 NOSIG
5:30 da manhã
V
48 °F 6¼ mi+ - Var 000° 0 kt METAR LFCR 280330Z AUTO 00000KT CAVOK 09/07 Q1019 NOSIG
5:00 da manhã
V
50 °F 6¼ mi+ - 330° 330° 1 kt METAR LFCR 280300Z AUTO 33001KT CAVOK 10/08 Q1019 NOSIG
4:30 da manhã
V
54 °F 6¼ mi+ - Var Var 2 kt METAR LFCR 280230Z AUTO VRB02KT CAVOK 12/10 Q1020 NOSIG
4:00 da manhã
V
50 °F 6¼ mi+ - 270° 270° 2 kt METAR LFCR 280200Z AUTO 27002KT CAVOK 10/08 Q1020 NOSIG
3:30 da manhã
V
55 °F 6¼ mi+ - Var Var 1 kt METAR LFCR 280130Z AUTO VRB01KT CAVOK 13/10 Q1020 NOSIG
3:00 da manhã
V
55 °F 6¼ mi+ - 340° 340° 5 kt METAR LFCR 280100Z AUTO 34005KT CAVOK 13/09 Q1020 NOSIG
2:30 da manhã
V
57 °F 6¼ mi+ - Var Var 3 kt METAR LFCR 280030Z AUTO VRB03KT CAVOK 14/09 Q1021 NOSIG
2:00 da manhã
V
57 °F 6¼ mi+ - Var Var 3 kt METAR LFCR 280000Z AUTO VRB03KT CAVOK 14/10 Q1021 NOSIG
1:30 da manhã
V
55 °F 6¼ mi+ - 310° 310° 4 kt METAR LFCR 272330Z AUTO 31004KT CAVOK 13/10 Q1021 NOSIG
1:00 da manhã
V
59 °F 6¼ mi+ - 330° 330° 4 kt METAR LFCR 272300Z AUTO 33004KT CAVOK 15/11 Q1022 NOSIG
12:30 da manhã
V
57 °F 6¼ mi+ - 310° 310° 5 kt METAR LFCR 272230Z AUTO 31005KT 290V350 CAVOK 14/12 Q1022 NOSIG
12:00 da manhã
V
59 °F 6¼ mi+ - Var Var 2 kt METAR LFCR 272200Z AUTO VRB02KT CAVOK 15/12 Q1022 BECMG 30012KT

27 de maio de 2022

Hora Código Clima Temp. Visibilidade Tecto Vento METAR/SPECI
11:30 da tarde
V
59 °F 6¼ mi+ - 300° 300° 5 kt METAR LFCR 272130Z AUTO 30005KT CAVOK 15/12 Q1022 NOSIG
11:00 da tarde
V
61 °F 6¼ mi+ - 300° 300° 7 kt METAR LFCR 272100Z AUTO 30007KT CAVOK 16/12 Q1022 NOSIG
10:30 da tarde
V
61 °F 6¼ mi+ - 300° 300° 8 kt METAR LFCR 272030Z AUTO 30008KT CAVOK 16/12 Q1022 NOSIG
10:00 da tarde
V
32 °F 6¼ mi+ - 300° 300° 10 kt METAR LFCR 272000Z AUTO 30010KT CAVOK ///// Q1022 NOSIG
9:30 da tarde
V
32 °F 6¼ mi+ - 300° 300° 10 kt METAR LFCR 271930Z AUTO 30010KT CAVOK ///// Q1022 NOSIG
9:00 da tarde
V
32 °F 6¼ mi+ - 310° 310° 11 kt METAR LFCR 271900Z AUTO 31011KT CAVOK ///// Q1022 NOSIG
8:30 da tarde
I
70 °F 2¾ mi - 300° 300° 14 kt METAR LFCR 271830Z AUTO 30014KT 9999 4500 NSC 21/14 Q1021 NOSIG
8:00 da tarde
V
72 °F 6¼ mi+ - 310° 310° 13 kt METAR LFCR 271800Z AUTO 31013KT CAVOK 22/14 Q1021 NOSIG
7:30 da tarde
V
72 °F 6¼ mi+ - 300° 300° 14 kt METAR LFCR 271730Z AUTO 30014KT CAVOK 22/14 Q1021 NOSIG
7:00 da tarde
V
73 °F 6¼ mi+ - 310° 310° 14 kt METAR LFCR 271700Z AUTO 31014KT CAVOK 23/14 Q1021 NOSIG
6:30 da tarde
V
75 °F 6¼ mi+ - 300° 300° 13 kt METAR LFCR 271630Z AUTO 30013KT CAVOK 24/14 Q1022 NOSIG
6:00 da tarde
V
75 °F 6¼ mi+ - 310° 310° 11 kt METAR LFCR 271600Z AUTO 31011KT 280V340 CAVOK 24/14 Q1022 NOSIG
5:30 da tarde
V
75 °F 6¼ mi+ - 300° 300° 10 kt METAR LFCR 271530Z AUTO 30010KT 260V340 9999 FEW044 24/14 Q1022 NOSIG
5:00 da tarde
V
75 °F 6¼ mi+ - 310° 310° 13 kt METAR LFCR 271500Z AUTO 31013KT 270V350 CAVOK 24/14 Q1022 NOSIG
4:30 da tarde
V
75 °F 6¼ mi+ - 310° 310° 10 kt METAR LFCR 271430Z AUTO 31010KT 270V350 CAVOK 24/14 Q1022 NOSIG
4:00 da tarde
V
75 °F 6¼ mi+ - 310° 310° 13 kt METAR LFCR 271400Z AUTO 31013KT 270V350 CAVOK 24/14 Q1023 NOSIG
3:30 da tarde
V
73 °F 6¼ mi+ - 300° 300° 12 kt METAR LFCR 271330Z AUTO 30012KT 260V330 CAVOK 23/13 Q1023 NOSIG
3:00 da tarde
V
73 °F 6¼ mi+ - 310° 310° 10 kt METAR LFCR 271300Z AUTO 31010KT 270V340 CAVOK 23/13 Q1023 NOSIG
2:30 da tarde
V
70 °F 6¼ mi+ - 310° 310° 11 kt METAR LFCR 271230Z AUTO 31011KT 280V350 CAVOK 21/13 Q1024 NOSIG
2:00 da tarde
V
70 °F 6¼ mi+ - 300° 300° 11 kt METAR LFCR 271200Z AUTO 30011KT 260V350 CAVOK 21/12 Q1024 NOSIG
1:30 da tarde
V
68 °F 6¼ mi+ - 300° 300° 10 kt METAR LFCR 271130Z AUTO 30010KT 270V350 9999 FEW032 20/12 Q1024 NOSIG
1:00 da tarde
V
68 °F 6¼ mi+ - 320° 320° 11 kt METAR LFCR 271100Z AUTO 32011KT 280V360 CAVOK 20/12 Q1024 NOSIG
12:30 da tarde
V
68 °F 6¼ mi+ - 300° 300° 12 kt METAR LFCR 271030Z AUTO 30012KT CAVOK 20/12 Q1024 NOSIG
12:00 da tarde
V
32 °F 6¼ mi+ - 310° 310° 10 kt METAR LFCR 271000Z AUTO 31010KT 270V360 CAVOK ///// Q1024 NOSIG
11:30 da manhã
V
32 °F 6¼ mi+ - 310° 310° 10 kt METAR LFCR 270930Z AUTO 31010KT 280V340 CAVOK ///// Q1024 NOSIG
11:00 da manhã
V
32 °F 6¼ mi+ - 310° 310° 8 kt METAR LFCR 270900Z AUTO 31008KT 280V350 CAVOK ///// Q1025 NOSIG
10:30 da manhã
V
63 °F 6¼ mi+ - 320° 320° 6 kt METAR LFCR 270830Z AUTO 32006KT 260V030 CAVOK 17/11 Q1025 NOSIG
10:00 da manhã
V
59 °F 6¼ mi+ - 320° 320° 7 kt METAR LFCR 270800Z AUTO 32007KT 290V010 CAVOK 15/11 Q1025 NOSIG
9:30 da manhã
V
57 °F 6¼ mi+ - 330° 330° 8 kt METAR LFCR 270730Z AUTO 33008KT 300V360 CAVOK 14/10 Q1025 NOSIG
9:00 da manhã
V
55 °F 6¼ mi+ - 320° 320° 9 kt METAR LFCR 270700Z AUTO 32009KT CAVOK 13/10 Q1025 NOSIG
8:30 da manhã
V
55 °F 6¼ mi+ - 320° 320° 6 kt METAR LFCR 270630Z AUTO 32006KT CAVOK 13/11 Q1024 NOSIG
8:00 da manhã
V
54 °F 6¼ mi+ - 320° 320° 7 kt METAR LFCR 270600Z AUTO 32007KT CAVOK 12/10 Q1024 NOSIG
7:30 da manhã
V
52 °F 6¼ mi+ - 330° 330° 7 kt METAR LFCR 270530Z AUTO 33007KT CAVOK 11/10 Q1024 NOSIG
7:00 da manhã
V
52 °F 6¼ mi+ - 320° 320° 5 kt METAR LFCR 270500Z AUTO 32005KT 280V360 CAVOK 11/09 Q1024 NOSIG
6:30 da manhã
V
48 °F 6¼ mi+ - 300° 300° 6 kt METAR LFCR 270430Z AUTO 30006KT CAVOK 09/09 Q1024 NOSIG
6:00 da manhã
V
48 °F 6¼ mi+ - 300° 300° 6 kt METAR LFCR 270400Z AUTO 30006KT CAVOK 09/08 Q1024 NOSIG
5:30 da manhã
V
46 °F 6¼ mi+ - 310° 310° 5 kt METAR LFCR 270330Z AUTO 31005KT 280V340 CAVOK 08/08 Q1024 NOSIG
5:00 da manhã
V
48 °F 6¼ mi+ - 290° 290° 5 kt METAR LFCR 270300Z AUTO 29005KT CAVOK 09/08 Q1025 NOSIG
4:30 da manhã
V
48 °F 6¼ mi+ - 310° 310° 6 kt METAR LFCR 270230Z AUTO 31006KT CAVOK 09/09 Q1025 NOSIG
4:00 da manhã
V
48 °F 6¼ mi+ - 300° 300° 5 kt METAR LFCR 270200Z AUTO 30005KT CAVOK 09/09 Q1025 NOSIG
3:30 da manhã
V
48 °F 6¼ mi+ - 290° 290° 3 kt METAR LFCR 270130Z AUTO 29003KT CAVOK 09/09 Q1025 NOSIG
3:00 da manhã
V
50 °F 6¼ mi+ - 270° 270° 3 kt METAR LFCR 270100Z AUTO 27003KT CAVOK 10/09 Q1025 NOSIG
2:30 da manhã
V
50 °F 6¼ mi+ - 290° 290° 5 kt METAR LFCR 270030Z AUTO 29005KT CAVOK 10/10 Q1026 NOSIG
2:00 da manhã
V
50 °F 6¼ mi+ - 280° 280° 3 kt METAR LFCR 270000Z AUTO 28003KT CAVOK 10/10 Q1026 NOSIG
1:30 da manhã
V
52 °F 6¼ mi+ - 300° 300° 7 kt METAR LFCR 262330Z AUTO 30007KT CAVOK 11/10 Q1026 NOSIG
1:00 da manhã
V
52 °F 6¼ mi+ - 290° 290° 6 kt METAR LFCR 262300Z AUTO 29006KT CAVOK 11/10 Q1026 NOSIG
12:30 da manhã
V
52 °F 6¼ mi+ - 290° 290° 7 kt METAR LFCR 262230Z AUTO 29007KT 9999 FEW038 11/10 Q1027 NOSIG
12:00 da manhã
V
55 °F 6¼ mi+ 3.800 ft 290° 290° 8 kt METAR LFCR 262200Z AUTO 29008KT 9999 OVC038 13/10 Q1027 NOSIG

26 de maio de 2022

Hora Código Clima Temp. Visibilidade Tecto Vento METAR/SPECI
11:30 da tarde
V
57 °F 6¼ mi+ 3.800 ft 300° 300° 9 kt METAR LFCR 262130Z AUTO 30009KT 9999 OVC038 14/11 Q1027 NOSIG
11:00 da tarde
V
32 °F 6¼ mi+ 3.900 ft 300° 300° 8 kt METAR LFCR 262100Z AUTO 30008KT 9999 OVC039 ///// Q1027 NOSIG
10:30 da tarde
V
59 °F 6¼ mi+ 3.800 ft 310° 310° 7 kt METAR LFCR 262030Z AUTO 31007KT 9999 FEW031 OVC038 15/11 Q1026 NOSIG
10:00 da tarde
V
59 °F 6¼ mi+ 3.600 ft 300° 300° 8 kt METAR LFCR 262000Z AUTO 30008KT 9999 OVC036 15/11 Q1026 NOSIG
9:30 da tarde
V
32 °F 6¼ mi+ 3.500 ft 290° 290° 9 kt METAR LFCR 261930Z AUTO 29009KT 9999 OVC035 ///// Q1026 NOSIG
9:00 da tarde
V
32 °F 6¼ mi+ 3.700 ft 290° 290° 11 kt METAR LFCR 261900Z AUTO 29011KT 9999 OVC037 ///// Q1025 NOSIG
8:30 da tarde
V
32 °F 6¼ mi+ 4.100 ft 300° 300° 12 kt METAR LFCR 261830Z AUTO 30012KT 9999 BKN041 ///// Q1025 NOSIG
8:00 da tarde
V
32 °F 6¼ mi+ 4.500 ft 290° 290° 13 kt METAR LFCR 261800Z AUTO 29013KT 9999 BKN045 ///// Q1025 NOSIG
7:30 da tarde
V
32 °F 6¼ mi+ 4.600 ft 300° 300° 12 kt METAR LFCR 261730Z AUTO 30012KT 9999 OVC046 ///// Q1025 NOSIG
7:00 da tarde
V
32 °F 6¼ mi+ 4.600 ft 290° 290° 14 kt METAR LFCR 261700Z AUTO 29014KT 9999 FEW030 OVC046 ///// Q1025 NOSIG
6:30 da tarde
V
32 °F 6¼ mi+ 4.500 ft 280° 280° 13 kt METAR LFCR 261630Z AUTO 28013KT 9999 FEW029 OVC045 ///// Q1025 NOSIG
6:00 da tarde
V
32 °F 6¼ mi+ 4.400 ft 280° 280° 13 kt METAR LFCR 261600Z AUTO 28013KT 9999 FEW032 OVC044 ///// Q1025 NOSIG
5:30 da tarde
V
32 °F 6¼ mi+ 4.200 ft 300° 300° 11 kt METAR LFCR 261530Z AUTO 30011KT 9999 SCT031 OVC042 ///// Q1025 NOSIG
5:00 da tarde
V
32 °F 6¼ mi+ 3.000 ft 290° 290° 10 kt METAR LFCR 261500Z AUTO 29010KT 260V320 9999 BKN030 BKN035 OVC041 ///// Q1025 NOSIG
Dados mais antigos

Baixe nosso aplicativo

Fácil acesso a todas as condições meteorológicas da aviação no seu celular e no seu tablet.
Com muitas características não disponíveis no site, como suporte offline e uma lista pessoal de aeroportos.

Nós e terceiros acompanhamos seu comportamento na internet em nosso site com cookies. Se você continuar, nós assumimos que você concorda com nossa política de cookies. Saiba mais